4XCWC LLHZ-LLHZ

Flight info

Callsign 4XCWC
Flight time 0h 27m
Altitude 800
Route CVFR
Aircraft C172/L-VD/A

Departure

Time 2026-04-20 16:22
Airport Herzliya Airport (LLHZ)

Arrival

Time 2026-04-20 16:49
Airport Herzliya Airport (LLHZ)
Time Latitude Longitude Altitude Speed Heading
2026-04-20 16:16 32.17881 34.83779 117 ft 0 kts 110°
2026-04-20 16:20 32.17881 34.83782 117 ft 4 kts 103°
2026-04-20 16:20 32.17890 34.83819 118 ft 0 kts 81°
2026-04-20 16:20 32.17890 34.83820 118 ft 3 kts 75°
2026-04-20 16:20 32.17927 34.83808 122 ft 7 kts 291°
2026-04-20 16:21 32.18008 34.83533 107 ft 62 kts 290°
2026-04-20 16:21 32.18138 34.83016 323 ft 65 kts 290°
2026-04-20 16:21 32.18534 34.82740 433 ft 81 kts 11°
2026-04-20 16:21 32.19067 34.83033 671 ft 79 kts 16°
2026-04-20 16:22 32.19469 34.83527 752 ft 107 kts 73°
2026-04-20 16:22 32.19270 34.84425 788 ft 122 kts 115°
2026-04-20 16:22 32.18891 34.85337 874 ft 115 kts 130°
2026-04-20 16:22 32.18258 34.85433 752 ft 104 kts 200°
2026-04-20 16:23 32.17661 34.85076 732 ft 83 kts 250°
2026-04-20 16:23 32.17735 34.84466 400 ft 79 kts 292°
2026-04-20 16:23 32.17891 34.83923 159 ft 60 kts 292°
2026-04-20 16:23 32.18013 34.83510 106 ft 59 kts 291°
2026-04-20 16:24 32.18153 34.83028 332 ft 60 kts 290°
2026-04-20 16:24 32.18531 34.82849 455 ft 76 kts 17°
2026-04-20 16:24 32.18769 34.82977 585 ft 75 kts 17°
2026-04-20 16:25 32.19291 34.83192 681 ft 93 kts 29°
2026-04-20 16:25 32.19337 34.83960 720 ft 118 kts 114°
2026-04-20 16:25 32.18976 34.84883 751 ft 120 kts 117°
2026-04-20 16:25 32.18391 34.85408 622 ft 105 kts 190°
2026-04-20 16:26 32.17753 34.85209 539 ft 83 kts 229°
2026-04-20 16:26 32.17679 34.84591 387 ft 87 kts 295°
2026-04-20 16:26 32.17821 34.84158 266 ft 76 kts 289°
2026-04-20 16:26 32.18012 34.83523 106 ft 58 kts 290°
2026-04-20 16:27 32.18110 34.83201 227 ft 63 kts 291°
2026-04-20 16:27 32.18356 34.82808 373 ft 77 kts 356°
2026-04-20 16:27 32.18914 34.82981 559 ft 84 kts 10°
2026-04-20 16:27 32.19465 34.83283 709 ft 100 kts 55°
2026-04-20 16:28 32.19332 34.84186 682 ft 123 kts 114°
2026-04-20 16:28 32.18990 34.85099 733 ft 117 kts 116°
2026-04-20 16:28 32.18372 34.85424 583 ft 100 kts 202°
2026-04-20 16:28 32.17794 34.85142 479 ft 80 kts 242°
2026-04-20 16:29 32.17707 34.84578 384 ft 60 kts 288°
2026-04-20 16:29 32.17831 34.84120 213 ft 63 kts 291°
2026-04-20 16:29 32.17977 34.83639 111 ft 56 kts 291°
2026-04-20 16:29 32.18111 34.83147 229 ft 68 kts 288°
2026-04-20 16:30 32.18404 34.82769 426 ft 79 kts
2026-04-20 16:30 32.18864 34.82970 583 ft 85 kts 14°
2026-04-20 16:31 32.19300 34.83423 696 ft 104 kts 68°
2026-04-20 16:31 32.19183 34.84341 691 ft 126 kts 115°
2026-04-20 16:32 32.18788 34.85292 761 ft 125 kts 129°
2026-04-20 16:32 32.18111 34.85497 606 ft 98 kts 207°
2026-04-20 16:32 32.17594 34.85133 519 ft 78 kts 258°
2026-04-20 16:32 32.17701 34.84566 354 ft 63 kts 293°
2026-04-20 16:33 32.17839 34.84100 211 ft 60 kts 289°
2026-04-20 16:33 32.17975 34.83649 111 ft 51 kts 291°
2026-04-20 16:33 32.18115 34.83200 157 ft 69 kts 292°
2026-04-20 16:33 32.18483 34.82852 338 ft 80 kts 355°
2026-04-20 16:34 32.19081 34.83052 501 ft 91 kts
2026-04-20 16:34 32.19690 34.83250 716 ft 87 kts
2026-04-20 16:34 32.20254 34.83396 976 ft 80 kts
2026-04-20 16:34 32.20685 34.83540 1133 ft 86 kts
2026-04-20 16:35 32.21130 34.83707 1353 ft 81 kts 14°
2026-04-20 16:35 32.21639 34.83906 1624 ft 75 kts 11°
2026-04-20 16:35 32.22139 34.84043 1808 ft 78 kts
2026-04-20 16:36 32.22725 34.84207 1905 ft 88 kts
2026-04-20 16:36 32.23312 34.84427 2050 ft 96 kts 16°
2026-04-20 16:36 32.23955 34.84698 2196 ft 98 kts 11°
2026-04-20 16:36 32.24632 34.84889 2331 ft 102 kts
2026-04-20 16:37 32.25359 34.85007 2383 ft 110 kts
2026-04-20 16:37 32.26124 34.85104 2483 ft 111 kts
2026-04-20 16:37 32.26902 34.85174 2546 ft 114 kts
2026-04-20 16:37 32.27396 34.85889 2516 ft 135 kts 91°
2026-04-20 16:38 32.26772 34.86591 2460 ft 135 kts 182°
2026-04-20 16:38 32.26424 34.86594 2373 ft 139 kts 185°
2026-04-20 16:42 32.26383 34.86594 2344 ft 139 kts 182°
2026-04-20 16:42 32.25447 34.86625 1979 ft 130 kts 182°
2026-04-20 16:42 32.24584 34.86650 1718 ft 117 kts 186°
2026-04-20 16:42 32.23789 34.86603 1416 ft 114 kts 190°
2026-04-20 16:43 32.23029 34.86550 1209 ft 109 kts 182°
2026-04-20 16:43 32.22426 34.87040 1051 ft 114 kts 129°
2026-04-20 16:43 32.21959 34.87774 1089 ft 109 kts 129°
2026-04-20 16:43 32.21378 34.88363 1180 ft 115 kts 169°
2026-04-20 16:44 32.21012 34.88405 1245 ft 113 kts 187°
2026-04-20 16:44 32.20200 34.88370 1211 ft 125 kts 188°
2026-04-20 16:44 32.19332 34.88330 1310 ft 122 kts 186°
2026-04-20 16:44 32.18476 34.88325 1281 ft 121 kts 188°
2026-04-20 16:45 32.17674 34.88201 1156 ft 113 kts 207°
2026-04-20 16:45 32.17192 34.87539 896 ft 112 kts 251°
2026-04-20 16:45 32.17021 34.86688 736 ft 98 kts 281°
2026-04-20 16:45 32.17260 34.85978 713 ft 90 kts 294°
2026-04-20 16:46 32.17490 34.85242 524 ft 93 kts 289°
2026-04-20 16:46 32.17689 34.84601 368 ft 74 kts 291°
2026-04-20 16:46 32.17841 34.84085 197 ft 61 kts 292°
2026-04-20 16:46 32.17969 34.83661 112 ft 57 kts 291°
2026-04-20 16:47 32.18102 34.83137 300 ft 66 kts 283°
2026-04-20 16:47 32.18418 34.82760 457 ft 77 kts 355°
2026-04-20 16:47 32.18989 34.82984 581 ft 90 kts 11°
2026-04-20 16:47 32.19486 34.83410 744 ft 105 kts 78°
2026-04-20 16:48 32.19195 34.84308 735 ft 128 kts 117°
2026-04-20 16:48 32.18704 34.85143 736 ft 120 kts 158°
2026-04-20 16:48 32.17955 34.85105 563 ft 99 kts 204°
2026-04-20 16:48 32.17545 34.84810 492 ft 55 kts 284°
2026-04-20 16:49 32.17748 34.84367 298 ft 64 kts 290°
2026-04-20 16:49 32.17899 34.83902 139 ft 54 kts 291°
2026-04-20 16:49 32.17979 34.83595 108 ft 9 kts 235°
2026-04-20 16:49 32.17956 34.83591 108 ft 0 kts 285°
2026-04-20 16:50 32.17967 34.83552 107 ft 7 kts 289°
2026-04-20 16:50 32.17996 34.83451 104 ft 17 kts 290°
2026-04-20 16:50 32.18029 34.83330 101 ft 8 kts 264°